Time;durP1;ratioP1;P1;durP2;ratioP2;P2;SDS_P1;SDS_P2;PMS_P1;PMS_P2;Temp;Humidity;BMP_temperature;BMP_pressure;BME280_temperature;BME280_humidity;BME280_pressure;Samples;Min_cycle;Max_cycle;Signal;HPM_P1;HPM_P2
2022/03/09 00:02:11;;;;;;;;;;;;;;;0.63;100.00;102146.72;4958281;28;19918;-71
2022/03/09 00:04:36;;;;;;;;;;;;;;;0.60;100.00;102144.06;4975147;28;19961;-71
2022/03/09 00:07:01;;;;;;;;;;;;;;;0.61;100.00;102143.19;4974921;28;19918;-71
2022/03/09 00:09:27;;;;;;;;;;;;;;;0.75;100.00;102149.53;4975455;28;19918;-71
2022/03/09 00:11:52;;;;;;;;;;;;;;;0.63;100.00;102147.59;4974917;28;20009;-71
2022/03/09 00:14:17;;;;;;;;;;;;;;;0.58;100.00;102153.59;4958167;28;19922;-71
2022/03/09 00:16:42;;;;;;;;;;;;;;;0.51;100.00;102164.78;4974769;28;19924;-72
2022/03/09 00:19:08;;;;;;;;;;;;;;;0.58;100.00;102171.88;4975394;28;19922;-71
2022/03/09 00:21:33;;;;;;;;;;;;;;;0.62;100.00;102163.25;4974690;28;19946;-71
2022/03/09 00:23:58;;;;;;;;;;;;;;;0.69;100.00;102171.25;4974736;28;19922;-71
2022/03/09 00:26:23;;;;;;;;;;;;;;;0.78;100.00;102173.13;4974689;28;19941;-72
2022/03/09 00:28:48;;;;;;;;;;;;;;;0.80;100.00;102171.44;4974674;28;19961;-72
2022/03/09 00:31:14;;;;;;;;;;;;;;;0.67;100.00;102172.94;4975280;28;20072;-71
2022/03/09 00:33:39;;;;;;;;;;;;;;;0.66;100.00;102171.16;4957293;28;20013;-72
2022/03/09 00:36:04;;;;;;;;;;;;;;;0.60;100.00;102173.66;4974484;28;19918;-72
2022/03/09 00:38:29;;;;;;;;;;;;;;;0.66;100.00;102180.75;4957176;28;20383;-72
2022/03/09 00:40:55;;;;;;;;;;;;;;;0.64;100.00;102178.13;4975097;28;19994;-71
2022/03/09 00:43:20;;;;;;;;;;;;;;;0.70;100.00;102183.44;4974718;28;19918;-71
2022/03/09 00:45:46;;;;;;;;;;;;;;;0.78;100.00;102179.25;4975006;28;19922;-71
2022/03/09 00:48:11;;;;;;;;;;;;;;;0.69;100.00;102178.19;4974843;28;20001;-72
2022/03/09 00:50:37;;;;;;;;;;;;;;;0.75;100.00;102186.16;4974971;28;19949;-71
2022/03/09 00:53:02;;;;;;;;;;;;;;;0.83;100.00;102180.22;4974548;28;20282;-71
2022/03/09 00:55:27;;;;;;;;;;;;;;;0.86;100.00;102182.00;4974403;28;19925;-71
2022/03/09 00:57:52;;;;;;;;;;;;;;;0.82;100.00;102182.81;4974611;28;19918;-71
2022/03/09 01:00:17;;;;;;;;;;;;;;;0.74;100.00;102180.03;4977928;28;20280;-71
2022/03/09 01:02:44;;;;;;;;;;;;;;;0.84;100.00;102184.59;4978047;28;19919;-71
2022/03/09 01:05:10;;;;;;;;;;;;;;;0.73;100.00;102177.38;4978535;28;20372;-72
2022/03/09 01:07:35;;;;;;;;;;;;;;;0.75;100.00;102181.81;4978301;28;19918;-72
2022/03/09 01:10:00;;;;;;;;;;;;;;;0.90;100.00;102187.31;4960668;28;20017;-71
2022/03/09 01:12:26;;;;;;;;;;;;;;;0.82;100.00;102183.66;4960398;28;19941;-71
2022/03/09 01:14:51;;;;;;;;;;;;;;;0.66;100.00;102180.75;4977662;28;20402;-72
2022/03/09 01:17:16;;;;;;;;;;;;;;;0.57;100.00;102180.59;4978380;28;19926;-71
2022/03/09 01:19:41;;;;;;;;;;;;;;;0.56;100.00;102179.69;4977860;28;19922;-72
2022/03/09 01:22:06;;;;;;;;;;;;;;;0.48;100.00;102177.78;4977874;28;19987;-72
2022/03/09 01:24:32;;;;;;;;;;;;;;;0.56;100.00;102184.03;4977581;28;19985;-71
2022/03/09 01:26:57;;;;;;;;;;;;;;;0.44;100.00;102187.28;4977867;28;20283;-72
2022/03/09 01:29:22;;;;;;;;;;;;;;;0.41;100.00;102183.75;4976994;28;19918;-72
2022/03/09 01:31:47;;;;;;;;;;;;;;;0.46;100.00;102182.13;4972334;28;20299;-71
2022/03/09 01:34:12;;;;;;;;;;;;;;;0.45;100.00;102185.56;4959578;28;20434;-71
2022/03/09 01:36:38;;;;;;;;;;;;;;;0.58;100.00;102184.97;4956738;29;20387;-71
2022/03/09 01:39:03;;;;;;;;;;;;;;;0.64;100.00;102191.19;4971849;28;19918;-71
2022/03/09 01:41:29;;;;;;;;;;;;;;;0.60;100.00;102185.88;4965360;28;19945;-72
2022/03/09 01:44:23;;;;;;;;;;;;;;;0.57;100.00;102191.91;4957876;29;19926;-71
2022/03/09 01:46:50;;;;;;;;;;;;;;;0.61;100.00;102187.63;4949149;29;20307;-72
2022/03/09 01:49:16;;;;;;;;;;;;;;;0.59;100.00;102189.31;4943255;28;20290;-71
2022/03/09 01:51:43;;;;;;;;;;;;;;;0.58;100.00;102177.13;4957780;29;19924;-71
2022/03/09 01:54:08;;;;;;;;;;;;;;;0.51;100.00;102175.22;4957800;29;19918;-71
2022/03/09 01:56:34;;;;;;;;;;;;;;;0.68;100.00;102161.63;4961862;28;20462;-71
2022/03/09 02:02:02;;;;;;;;;;;;;;;0.59;100.00;102158.84;4973579;28;20299;-72
2022/03/09 02:04:52;;;;;;;;;;;;;;;0.51;100.00;102162.16;4965152;28;19919;-72
2022/03/09 02:09:41;;;;;;;;;;;;;;;0.49;100.00;102151.66;4975892;28;20008;-71
2022/03/09 02:10:03;;;;;;;;;;;;;;;0.55;100.00;102150.94;4957815;28;19966;-71
2022/03/09 02:12:28;;;;;;;;;;;;;;;0.47;100.00;102156.00;4976263;28;20375;-72
2022/03/09 02:14:55;;;;;;;;;;;;;;;0.37;100.00;102156.69;4976718;28;20421;-71
2022/03/09 02:17:25;;;;;;;;;;;;;;;0.49;100.00;102156.03;4959317;28;19925;-72
2022/03/09 02:19:51;;;;;;;;;;;;;;;0.52;100.00;102161.31;4958649;28;19973;-71
2022/03/09 02:22:19;;;;;;;;;;;;;;;0.58;100.00;102151.88;4976485;28;20357;-71
2022/03/09 02:24:45;;;;;;;;;;;;;;;0.61;100.00;102158.88;4976556;28;19929;-71
2022/03/09 02:27:10;;;;;;;;;;;;;;;0.50;100.00;102153.47;4976396;28;19918;-71
2022/03/09 02:29:35;;;;;;;;;;;;;;;0.44;100.00;102155.94;4959165;28;19925;-72
2022/03/09 02:32:01;;;;;;;;;;;;;;;0.68;100.00;102155.53;4985491;28;19921;-72
2022/03/09 02:34:27;;;;;;;;;;;;;;;0.75;100.00;102149.53;4948310;28;19919;-72
2022/03/09 02:36:52;;;;;;;;;;;;;;;0.68;100.00;102156.41;4974619;28;19969;-72
2022/03/09 02:39:17;;;;;;;;;;;;;;;0.79;100.00;102154.84;4956816;29;19922;-72
2022/03/09 02:41:42;;;;;;;;;;;;;;;0.57;100.00;102157.94;4956846;29;20017;-71
2022/03/09 02:44:08;;;;;;;;;;;;;;;0.51;100.00;102155.22;4957052;29;20009;-71
2022/03/09 02:46:33;;;;;;;;;;;;;;;0.56;100.00;102158.78;4956494;29;19922;-71
2022/03/09 02:48:58;;;;;;;;;;;;;;;0.55;100.00;102146.56;4957845;28;20014;-72
2022/03/09 02:51:23;;;;;;;;;;;;;;;0.46;100.00;102153.38;4975972;28;19918;-72
2022/03/09 02:53:49;;;;;;;;;;;;;;;0.44;100.00;102157.69;4975908;28;19918;-72
2022/03/09 02:59:19;;;;;;;;;;;;;;;0.17;100.00;102162.34;4969363;28;20002;-72
2022/03/09 03:01:48;;;;;;;;;;;;;;;0.17;100.00;102162.34;4976170;28;19925;-72
2022/03/09 03:04:13;;;;;;;;;;;;;;;0.00;100.00;102159.41;4971682;28;19925;-71
2022/03/09 03:06:39;;;;;;;;;;;;;;;-0.01;100.00;102152.41;4969811;28;20291;-71
2022/03/09 03:09:04;;;;;;;;;;;;;;;-0.01;100.00;102148.06;4955164;28;19923;-71
2022/03/09 03:11:29;;;;;;;;;;;;;;;0.15;100.00;102151.88;4964075;28;20372;-71
2022/03/09 03:13:54;;;;;;;;;;;;;;;0.05;100.00;102152.53;4960838;28;20423;-71
2022/03/09 03:16:19;;;;;;;;;;;;;;;0.08;100.00;102154.34;4975551;28;19972;-71
2022/03/09 03:18:45;;;;;;;;;;;;;;;0.03;100.00;102150.75;4958317;28;19918;-71
2022/03/09 03:21:10;;;;;;;;;;;;;;;0.05;100.00;102149.91;4976058;28;19925;-72
2022/03/09 03:23:35;;;;;;;;;;;;;;;0.03;100.00;102146.41;4975409;28;20005;-72
2022/03/09 03:26:02;;;;;;;;;;;;;;;0.16;100.00;102148.41;4975254;28;19919;-72
2022/03/09 03:28:27;;;;;;;;;;;;;;;0.11;100.00;102138.72;4961508;28;19922;-72
2022/03/09 03:30:52;;;;;;;;;;;;;;;0.21;100.00;102148.50;4964191;28;19973;-72
2022/03/09 03:33:18;;;;;;;;;;;;;;;0.11;100.00;102154.41;4961247;23;19926;-70
2022/03/09 03:35:44;;;;;;;;;;;;;;;0.23;100.00;102147.69;4974969;28;19925;-71
2022/03/09 03:38:10;;;;;;;;;;;;;;;0.22;100.00;102145.91;4957963;28;19925;-70
2022/03/09 03:40:36;;;;;;;;;;;;;;;0.25;100.00;102145.09;4975280;28;20299;-70
2022/03/09 03:43:25;;;;;;;;;;;;;;;0.24;100.00;102143.34;4957714;28;19926;-70
2022/03/09 03:45:50;;;;;;;;;;;;;;;0.22;100.00;102152.88;4974157;28;19922;-71
2022/03/09 03:48:15;;;;;;;;;;;;;;;0.25;100.00;102137.28;4957711;28;19918;-71
2022/03/09 03:50:40;;;;;;;;;;;;;;;0.29;100.00;102146.91;4975044;28;19985;-71
2022/03/09 03:53:06;;;;;;;;;;;;;;;0.30;100.00;102136.50;4957626;28;20387;-71
2022/03/09 03:55:31;;;;;;;;;;;;;;;0.22;100.00;102137.22;4957371;28;20012;-71
2022/03/09 03:57:56;;;;;;;;;;;;;;;0.14;100.00;102136.19;4974786;28;19918;-71
2022/03/09 04:00:23;;;;;;;;;;;;;;;-0.02;100.00;102140.22;4957709;28;19978;-70
2022/03/09 04:02:48;;;;;;;;;;;;;;;-0.05;100.00;102140.16;4957432;28;19922;-71
2022/03/09 04:05:13;;;;;;;;;;;;;;;-0.08;100.00;102138.34;4974802;28;19941;-71
2022/03/09 04:07:39;;;;;;;;;;;;;;;-0.11;100.00;102148.72;4974734;28;19973;-70
2022/03/09 04:10:04;;;;;;;;;;;;;;;-0.24;100.00;102154.53;4975036;28;19918;-71
2022/03/09 04:12:29;;;;;;;;;;;;;;;-0.31;100.00;102147.41;4971973;28;20405;-71
2022/03/09 04:14:55;;;;;;;;;;;;;;;-0.30;100.00;102148.31;4974516;28;20327;-71
2022/03/09 04:17:20;;;;;;;;;;;;;;;-0.27;100.00;102149.22;4957271;28;19984;-71
2022/03/09 04:19:46;;;;;;;;;;;;;;;-0.31;100.00;102142.19;4957407;28;19925;-71
2022/03/09 04:22:11;;;;;;;;;;;;;;;-0.39;100.00;102142.88;4974756;28;19969;-70
2022/03/09 04:24:36;;;;;;;;;;;;;;;-0.49;100.00;102138.31;4954584;28;20028;-71
2022/03/09 04:27:02;;;;;;;;;;;;;;;-0.61;100.00;102131.06;4974850;28;20358;-71
2022/03/09 04:29:27;;;;;;;;;;;;;;;-0.68;100.00;102134.38;4974690;28;19918;-71
2022/03/09 04:31:52;;;;;;;;;;;;;;;-0.70;100.00;102133.47;4974545;28;19918;-71
2022/03/09 04:34:17;;;;;;;;;;;;;;;-0.71;100.00;102134.31;4975726;28;20299;-71
2022/03/09 04:36:42;;;;;;;;;;;;;;;-0.81;100.00;102139.28;4961084;28;19929;-71
2022/03/09 04:39:08;;;;;;;;;;;;;;;-0.77;100.00;102139.38;4960873;28;19949;-70
2022/03/09 04:41:34;;;;;;;;;;;;;;;-0.72;100.00;102145.59;4978129;28;20433;-71
2022/03/09 04:43:59;;;;;;;;;;;;;;;-0.82;100.00;102143.59;4960869;28;20387;-71
2022/03/09 04:46:24;;;;;;;;;;;;;;;-0.93;100.00;102142.47;4960812;28;19925;-71
2022/03/09 04:48:49;;;;;;;;;;;;;;;-0.98;100.00;102151.94;4978269;28;19922;-71
2022/03/09 04:51:15;;;;;;;;;;;;;;;-1.06;100.00;102156.06;4978118;28;19918;-71
2022/03/09 04:53:40;;;;;;;;;;;;;;;-1.10;100.00;102159.41;4977985;28;19965;-70
2022/03/09 04:56:05;;;;;;;;;;;;;;;-0.98;100.00;102154.53;4960710;28;19918;-71
2022/03/09 04:58:31;;;;;;;;;;;;;;;-0.87;100.00;102163.50;4978006;28;19922;-70
2022/03/09 05:00:56;;;;;;;;;;;;;;;-0.98;100.00;102158.84;4977971;28;19981;-70
2022/03/09 05:03:21;;;;;;;;;;;;;;;-0.98;100.00;102157.13;4960507;28;19925;-70
2022/03/09 05:05:47;;;;;;;;;;;;;;;-0.97;100.00;102158.91;4977930;28;19918;-71
2022/03/09 05:08:12;;;;;;;;;;;;;;;-0.99;100.00;102172.75;4960589;28;19955;-71
2022/03/09 05:10:38;;;;;;;;;;;;;;;-1.09;100.00;102170.75;4977787;28;19981;-71
2022/03/09 05:13:03;;;;;;;;;;;;;;;-1.16;100.00;102174.91;4977703;28;19925;-71
2022/03/09 05:15:29;;;;;;;;;;;;;;;-1.19;100.00;102173.94;4960345;28;20384;-70
2022/03/09 05:17:54;;;;;;;;;;;;;;;-1.27;100.00;102176.34;4960320;28;19918;-71
2022/03/09 05:20:20;;;;;;;;;;;;;;;-1.29;100.00;102183.25;4977651;28;19918;-71
2022/03/09 05:22:46;;;;;;;;;;;;;;;-1.30;100.00;102186.69;4977870;28;20343;-71
2022/03/09 05:25:11;;;;;;;;;;;;;;;-1.31;100.00;102184.94;4977653;28;19982;-71
2022/03/09 05:27:37;;;;;;;;;;;;;;;-1.27;100.00;102185.88;4960134;28;19944;-71
2022/03/09 05:30:03;;;;;;;;;;;;;;;-1.32;100.00;102183.16;4977473;28;20393;-71
2022/03/09 05:32:28;;;;;;;;;;;;;;;-1.37;100.00;102189.13;4960177;28;19929;-71
2022/03/09 05:34:53;;;;;;;;;;;;;;;-1.37;100.00;102179.53;4960242;28;20403;-71
2022/03/09 05:37:19;;;;;;;;;;;;;;;-1.38;100.00;102193.44;4977386;28;19918;-71
2022/03/09 05:39:44;;;;;;;;;;;;;;;-1.40;100.00;102187.28;4960552;28;20339;-73
2022/03/09 05:42:09;;;;;;;;;;;;;;;-1.42;100.00;102188.09;4977641;28;19961;-72
2022/03/09 05:44:34;;;;;;;;;;;;;;;-1.43;100.00;102195.03;4977194;28;19918;-71
2022/03/09 05:47:00;;;;;;;;;;;;;;;-1.46;100.00;102192.34;4959806;28;19918;-73
2022/03/09 05:49:25;;;;;;;;;;;;;;;-1.46;100.00;102200.16;4977279;28;20018;-71
2022/03/09 05:51:52;;;;;;;;;;;;;;;-1.50;100.00;102206.13;4977301;28;19922;-70
2022/03/09 05:54:18;;;;;;;;;;;;;;;-1.49;100.00;102205.28;4959836;28;20010;-81
2022/03/09 05:56:43;;;;;;;;;;;;;;;-1.54;100.00;102212.09;4976863;28;20415;-72
2022/03/09 05:59:08;;;;;;;;;;;;;;;-1.61;100.00;102204.97;4976900;28;19953;-71
2022/03/09 06:01:33;;;;;;;;;;;;;;;-1.66;100.00;102212.66;4977398;28;19922;-71
2022/03/09 06:03:58;;;;;;;;;;;;;;;-1.69;100.00;102215.13;4977141;28;19924;-71
2022/03/09 06:06:24;;;;;;;;;;;;;;;-1.64;100.00;102220.50;4976787;28;20372;-70
2022/03/09 06:08:49;;;;;;;;;;;;;;;-1.67;100.00;102220.41;4960911;28;19929;-72
2022/03/09 06:11:14;;;;;;;;;;;;;;;-1.68;100.00;102221.22;4976850;28;19918;-71
2022/03/09 06:13:39;;;;;;;;;;;;;;;-1.69;100.00;102222.09;4976733;28;19924;-73
2022/03/09 06:16:05;;;;;;;;;;;;;;;-1.67;100.00;102220.41;4976722;28;19925;-73
2022/03/09 06:18:30;;;;;;;;;;;;;;;-1.70;100.00;102228.09;4976619;28;19929;-74
2022/03/09 06:20:55;;;;;;;;;;;;;;;-1.67;100.00;102233.44;4976959;28;20013;-73
2022/03/09 06:23:21;;;;;;;;;;;;;;;-1.64;100.00;102226.56;4960802;28;19922;-71
2022/03/09 06:25:46;;;;;;;;;;;;;;;-1.51;100.00;102224.34;4979033;28;19918;-83
2022/03/09 06:28:11;;;;;;;;;;;;;;;-1.45;100.00;102224.50;4959899;28;20013;-72
2022/03/09 06:30:36;;;;;;;;;;;;;;;-1.39;100.00;102219.44;4959237;28;19922;-73
2022/03/09 06:39:27;;;;;;;;;;;;;;;-1.10;100.00;102218.53;4976412;28;19978;-71
2022/03/09 06:41:52;;;;;;;;;;;;;;;-1.10;100.00;102213.31;4976114;28;19930;-73
2022/03/09 06:44:17;;;;;;;;;;;;;;;-1.14;100.00;102214.94;4976942;28;19968;-74
2022/03/09 06:46:43;;;;;;;;;;;;;;;-0.99;100.00;102220.53;4959071;28;19918;-72
2022/03/09 06:49:08;;;;;;;;;;;;;;;-1.02;100.00;102215.25;4959837;28;19918;-74
2022/03/09 06:51:33;;;;;;;;;;;;;;;-1.00;100.00;102221.41;4976471;28;19925;-73
2022/03/09 06:53:58;;;;;;;;;;;;;;;-0.94;100.00;102223.25;4976379;28;20260;-71
2022/03/09 06:56:24;;;;;;;;;;;;;;;-0.87;100.00;102220.88;4957918;28;19918;-71
2022/03/09 06:58:49;;;;;;;;;;;;;;;-0.74;100.00;102217.69;4970645;28;20058;-74
2022/03/09 07:01:14;;;;;;;;;;;;;;;-0.67;100.00;102224.84;4975622;28;19919;-69
2022/03/09 07:03:40;;;;;;;;;;;;;;;-0.62;100.00;102211.91;4972966;28;20056;-71
2022/03/09 07:06:05;;;;;;;;;;;;;;;-0.51;100.00;102215.66;4958125;28;19925;-71
2022/03/09 07:08:30;;;;;;;;;;;;;;;-0.43;100.00;102220.22;4958053;28;19928;-71
2022/03/09 07:10:55;;;;;;;;;;;;;;;-0.30;100.00;102214.44;4975365;28;19922;-71
2022/03/09 07:13:21;;;;;;;;;;;;;;;-0.10;100.00;102227.94;4958080;28;19964;-71
2022/03/09 07:15:46;;;;;;;;;;;;;;;-0.19;100.00;102222.53;4958058;28;20016;-71
2022/03/09 07:18:11;;;;;;;;;;;;;;;-0.07;100.00;102222.78;4958094;28;20290;-71
2022/03/09 07:20:37;;;;;;;;;;;;;;;-0.02;100.00;102229.84;4958166;28;19918;-70
2022/03/09 07:23:02;;;;;;;;;;;;;;;0.02;100.00;102227.34;4959734;28;19918;-71
2022/03/09 07:25:27;;;;;;;;;;;;;;;0.08;100.00;102224.88;4975417;28;19925;-70
2022/03/09 07:27:53;;;;;;;;;;;;;;;0.22;100.00;102234.72;4965491;28;19926;-70
2022/03/09 07:30:18;;;;;;;;;;;;;;;0.26;100.00;102230.47;4974940;28;20379;-71
2022/03/09 07:32:43;;;;;;;;;;;;;;;0.39;100.00;102232.50;4975115;28;19927;-71
2022/03/09 07:35:09;;;;;;;;;;;;;;;0.49;100.00;102235.31;4971946;28;19945;-71
2022/03/09 07:37:34;;;;;;;;;;;;;;;0.60;100.00;102232.94;4957086;28;19925;-71
2022/03/09 07:39:59;;;;;;;;;;;;;;;0.65;100.00;102233.88;4954206;29;19947;-71
2022/03/09 07:42:27;;;;;;;;;;;;;;;0.64;100.00;102238.25;4966269;28;19925;-70
2022/03/09 07:44:52;;;;;;;;;;;;;;;0.72;100.00;102238.38;4956514;28;19922;-71
2022/03/09 07:47:17;;;;;;;;;;;;;;;0.86;100.00;102229.06;4957808;28;20033;-72
2022/03/09 07:49:42;;;;;;;;;;;;;;;0.98;100.00;102237.13;4953798;29;20264;-71
2022/03/09 07:52:08;;;;;;;;;;;;;;;1.09;100.00;102232.97;4956308;29;20364;-72
2022/03/09 07:54:33;;;;;;;;;;;;;;;1.26;100.00;102228.94;4939760;29;19919;-73
2022/03/09 07:56:59;;;;;;;;;;;;;;;1.25;100.00;102227.16;4941839;28;19928;-76
2022/03/09 07:59:26;;;;;;;;;;;;;;;1.24;100.00;102231.53;4976253;28;19976;-71
2022/03/09 08:01:53;;;;;;;;;;;;;;;1.27;100.00;102230.69;4958694;28;19918;-71
2022/03/09 08:04:19;;;;;;;;;;;;;;;1.39;100.00;102228.25;4974642;28;19968;-70
2022/03/09 08:06:46;;;;;;;;;;;;;;;1.43;100.00;102230.94;4960600;28;20331;-70
2022/03/09 08:09:11;;;;;;;;;;;;;;;1.71;100.00;102229.66;4979558;28;19928;-71
2022/03/09 08:11:36;;;;;;;;;;;;;;;1.72;100.00;102230.56;4981387;28;19918;-73
2022/03/09 08:14:01;;;;;;;;;;;;;;;1.75;100.00;102234.09;4964124;28;19918;-71
2022/03/09 08:16:27;;;;;;;;;;;;;;;1.92;100.00;102230.00;4962398;28;19918;-71
2022/03/09 08:18:52;;;;;;;;;;;;;;;2.04;100.00;102230.16;4980803;28;20340;-69
2022/03/09 08:21:17;;;;;;;;;;;;;;;2.20;100.00;102233.88;4980489;28;19919;-71
2022/03/09 08:23:43;;;;;;;;;;;;;;;2.40;100.00;102241.13;4962078;28;19972;-69
2022/03/09 08:26:08;;;;;;;;;;;;;;;2.47;100.00;102235.13;4961320;28;19918;-70
2022/03/09 08:28:33;;;;;;;;;;;;;;;2.58;100.00;102233.50;4961133;28;19918;-70
2022/03/09 08:30:58;;;;;;;;;;;;;;;2.67;100.00;102237.97;4977927;28;20272;-70
2022/03/09 08:33:24;;;;;;;;;;;;;;;2.71;100.00;102243.25;4978052;28;19925;-70
2022/03/09 08:35:49;;;;;;;;;;;;;;;2.87;100.00;102239.94;4958781;28;19922;-70
2022/03/09 08:38:14;;;;;;;;;;;;;;;3.06;100.00;102235.75;4977916;28;20281;-76
2022/03/09 08:40:39;;;;;;;;;;;;;;;3.06;100.00;102231.41;4973659;28;19972;-70
2022/03/09 08:43:05;;;;;;;;;;;;;;;3.05;100.00;102231.38;4978354;28;19918;-70
2022/03/09 08:45:33;;;;;;;;;;;;;;;3.17;100.00;102233.25;4960631;28;19926;-70
2022/03/09 08:47:58;;;;;;;;;;;;;;;3.19;100.00;102232.38;4978277;28;19926;-71
2022/03/09 08:50:23;;;;;;;;;;;;;;;3.44;100.00;102230.84;4976431;28;19925;-70
2022/03/09 08:52:48;;;;;;;;;;;;;;;3.52;100.00;102232.69;4977992;28;19922;-71
2022/03/09 08:55:13;;;;;;;;;;;;;;;3.52;100.00;102232.69;4977158;28;19922;-70
2022/03/09 08:57:39;;;;;;;;;;;;;;;3.64;100.00;102231.91;4977479;28;20367;-70
2022/03/09 09:00:05;;;;;;;;;;;;;;;3.84;100.00;102230.28;4977752;28;19919;-71
2022/03/09 09:02:30;;;;;;;;;;;;;;;3.82;100.00;102230.28;4977713;28;19987;-72
2022/03/09 09:04:56;;;;;;;;;;;;;;;4.04;100.00;102228.66;4977853;28;19919;-70
2022/03/09 09:07:22;;;;;;;;;;;;;;;4.17;100.00;102226.13;4977743;28;19918;-72
2022/03/09 09:09:47;;;;;;;;;;;;;;;4.31;100.00;102227.06;4960175;28;20004;-72
2022/03/09 09:12:12;;;;;;;;;;;;;;;4.35;100.00;102220.06;4987126;28;20061;-71
2022/03/09 09:14:38;;;;;;;;;;;;;;;4.43;100.00;102226.22;4977662;28;19957;-71
2022/03/09 09:17:03;;;;;;;;;;;;;;;4.53;100.00;102223.66;4960143;28;19922;-70
2022/03/09 09:19:29;;;;;;;;;;;;;;;4.70;100.00;102221.06;4959554;28;19919;-71
2022/03/09 09:21:54;;;;;;;;;;;;;;;4.86;100.00;102225.53;4977431;28;20351;-71
2022/03/09 09:24:19;;;;;;;;;;;;;;;5.10;100.00;102229.94;4960150;28;20013;-71
2022/03/09 09:26:45;;;;;;;;;;;;;;;5.10;100.00;102227.31;4977169;28;19929;-70
2022/03/09 09:29:10;;;;;;;;;;;;;;;5.22;100.00;102227.31;4977129;28;19922;-70
2022/03/09 09:31:35;;;;;;;;;;;;;;;5.20;100.00;102231.75;4966414;28;19925;-71
2022/03/09 09:34:02;;;;;;;;;;;;;;;5.40;100.00;102228.25;4977064;28;19928;-70
2022/03/09 09:36:27;;;;;;;;;;;;;;;5.69;100.00;102239.63;4957199;29;19926;-71
2022/03/09 09:38:52;;;;;;;;;;;;;;;5.73;100.00;102233.50;4953607;29;19919;-70
2022/03/09 09:41:19;;;;;;;;;;;;;;;5.77;100.00;102232.59;4938699;29;19919;-70
2022/03/09 09:43:45;;;;;;;;;;;;;;;6.01;100.00;102231.72;4938815;29;19926;-70
2022/03/09 09:46:15;;;;;;;;;;;;;;;5.92;100.00;102224.72;4937496;29;20009;-71
2022/03/09 09:48:40;;;;;;;;;;;;;;;6.18;100.00;102228.16;4937654;28;19918;-70
2022/03/09 09:51:06;;;;;;;;;;;;;;;6.31;100.00;102223.72;4938571;29;19926;-71
2022/03/09 09:53:33;;;;;;;;;;;;;;;6.46;100.00;102214.91;4953274;28;19922;-71
2022/03/09 09:55:59;;;;;;;;;;;;;;;6.50;100.00;102219.25;4937114;29;19918;-71
2022/03/09 09:58:25;;;;;;;;;;;;;;;6.63;100.00;102223.59;4938344;29;19926;-71
2022/03/09 10:00:50;;;;;;;;;;;;;;;6.82;100.00;102220.00;4938301;29;19942;-71
2022/03/09 10:03:15;;;;;;;;;;;;;;;6.99;100.00;102216.38;4936893;29;20013;-71
2022/03/09 10:05:40;;;;;;;;;;;;;;;6.97;100.00;102212.84;4938073;29;19923;-71
2022/03/09 10:08:06;;;;;;;;;;;;;;;6.90;100.00;102218.19;4936890;28;20014;-71
2022/03/09 10:10:36;;;;;;;;;;;;;;;7.04;100.00;102217.22;4936961;29;20018;-74
2022/03/09 10:13:18;;;;;;;;;;;;;;;7.38;100.00;102212.56;4937112;29;19923;-72
2022/03/09 10:15:44;;;;;;;;;;;;;;;7.58;100.00;102221.19;4942491;29;19950;-72
2022/03/09 10:18:10;;;;;;;;;;;;;;;7.78;100.00;102222.78;4958349;28;19919;-73
2022/03/09 10:20:36;;;;;;;;;;;;;;;7.85;100.00;102218.31;4959355;29;19918;-75
2022/03/09 10:23:01;;;;;;;;;;;;;;;7.94;100.00;102220.00;4957367;28;20276;-71
2022/03/09 10:25:26;;;;;;;;;;;;;;;8.02;100.00;102220.78;4955812;29;20292;-71
2022/03/09 10:27:56;;;;;;;;;;;;;;;8.15;100.00;102219.75;4955936;29;20375;-71
2022/03/09 10:30:30;;;;;;;;;;;;;;;8.20;100.00;102226.75;4955874;29;19976;-70
2022/03/09 10:32:57;;;;;;;;;;;;;;;8.42;100.00;102223.00;4955879;28;20015;-70
2022/03/09 10:35:31;;;;;;;;;;;;;;;8.42;100.00;102227.41;4961298;28;20291;-70
2022/03/09 10:37:56;;;;;;;;;;;;;;;8.74;100.00;102233.19;4976077;28;19964;-72
2022/03/09 10:40:22;;;;;;;;;;;;;;;8.85;100.00;102231.28;4976188;28;20338;-70
2022/03/09 10:42:48;;;;;;;;;;;;;;;8.94;100.00;102236.44;4975802;28;19918;-69
2022/03/09 10:45:15;;;;;;;;;;;;;;;9.11;100.00;102232.66;4975695;28;19966;-71
2022/03/09 10:47:41;;;;;;;;;;;;;;;9.26;100.00;102235.06;4975861;28;19919;-71
2022/03/09 10:50:21;;;;;;;;;;;;;;;9.36;100.00;102227.00;4957685;28;19977;-70
2022/03/09 10:52:46;;;;;;;;;;;;;;;9.59;100.00;102232.81;4958169;28;19922;-71
2022/03/09 10:55:21;;;;;;;;;;;;;;;9.87;100.00;102224.34;4958520;28;19965;-72
2022/03/09 10:57:47;;;;;;;;;;;;;;;10.14;100.00;102221.22;4976102;28;19926;-72
2022/03/09 11:00:12;;;;;;;;;;;;;;;10.34;100.00;102221.72;4964518;28;20284;-74
2022/03/09 11:02:47;;;;;;;;;;;;;;;10.78;100.00;102226.09;4975905;28;19922;-71
2022/03/09 11:05:13;;;;;;;;;;;;;;;12.14;100.00;102237.84;4958401;28;19957;-71
2022/03/09 11:07:38;;;;;;;;;;;;;;;13.73;100.00;102233.88;4960083;28;20386;-70
2022/03/09 11:10:08;;;;;;;;;;;;;;;15.23;100.00;102231.00;4958496;28;19922;-73
2022/03/09 11:12:34;;;;;;;;;;;;;;;15.78;100.00;102234.09;4958450;28;20434;-70
2022/03/09 11:14:59;;;;;;;;;;;;;;;16.19;100.00;102233.19;4975068;28;19918;-71
2022/03/09 11:17:24;;;;;;;;;;;;;;;17.32;100.00;102223.41;4957645;28;20360;-70
2022/03/09 11:19:50;;;;;;;;;;;;;;;17.82;100.00;102221.81;4975460;28;19918;-70
2022/03/09 11:22:15;;;;;;;;;;;;;;;17.56;100.00;102224.06;4957760;28;19918;-70
2022/03/09 11:24:41;;;;;;;;;;;;;;;18.53;100.00;102223.44;4974875;28;19953;-70
2022/03/09 11:27:07;;;;;;;;;;;;;;;18.75;100.00;102228.56;4959851;28;19934;-70
2022/03/09 11:29:36;;;;;;;;;;;;;;;19.59;100.00;102235.41;4974782;28;19926;-70
2022/03/09 11:32:09;;;;;;;;;;;;;;;18.33;100.00;102220.94;4975008;28;19992;-72
2022/03/09 11:34:38;;;;;;;;;;;;;;;18.75;100.00;102228.56;4974739;28;19925;-72
2022/03/09 11:37:08;;;;;;;;;;;;;;;19.60;100.00;102225.50;4974451;28;20012;-72
2022/03/09 11:39:34;;;;;;;;;;;;;;;19.77;100.00;102226.25;4957333;28;19924;-70
2022/03/09 11:42:18;;;;;;;;;;;;;;;21.53;100.00;102230.41;4957264;28;19970;-70
2022/03/09 11:44:43;;;;;;;;;;;;;;;20.77;100.00;102226.34;4957456;28;19918;-72
2022/03/09 11:47:08;;;;;;;;;;;;;;;19.54;100.00;102221.31;4968710;28;19929;-70
2022/03/09 11:49:46;;;;;;;;;;;;;;;20.86;100.00;102212.25;4976631;28;20339;-70
2022/03/09 11:52:19;;;;;;;;;;;;;;;21.81;100.00;102213.25;4993835;28;19925;-71
2022/03/09 11:54:55;;;;;;;;;;;;;;;22.77;100.00;102225.38;4976385;28;20391;-71
2022/03/09 11:57:23;;;;;;;;;;;;;;;23.06;100.00;102220.56;4993834;28;19918;-75
2022/03/09 11:59:57;;;;;;;;;;;;;;;22.95;100.00;102217.75;4976386;28;19918;-74
2022/03/09 12:02:22;;;;;;;;;;;;;;;25.02;84.89;102223.34;4957393;28;19918;-71
2022/03/09 12:04:48;;;;;;;;;;;;;;;23.82;96.72;102220.19;4957269;28;19941;-72
2022/03/09 12:07:34;;;;;;;;;;;;;;;24.67;72.74;102224.41;4975565;28;20012;-71
2022/03/09 12:10:00;;;;;;;;;;;;;;;22.95;99.08;102224.06;4975802;28;20288;-74
2022/03/09 12:12:27;;;;;;;;;;;;;;;23.54;83.13;102223.25;4957844;28;19977;-73
2022/03/09 12:14:59;;;;;;;;;;;;;;;23.96;92.75;102221.84;4957041;28;20426;-73
2022/03/09 12:17:28;;;;;;;;;;;;;;;22.87;83.90;102221.03;4957123;28;19918;-73
2022/03/09 12:20:20;;;;;;;;;;;;;;;21.71;91.27;102209.38;4964159;28;19918;-72
2022/03/09 12:23:01;;;;;;;;;;;;;;;24.75;76.45;102205.66;4961430;28;19962;-71
2022/03/09 12:25:36;;;;;;;;;;;;;;;24.89;77.52;102206.28;4956331;28;19922;-72
2022/03/09 12:28:20;;;;;;;;;;;;;;;24.44;86.13;102201.75;4957011;28;20402;-72
2022/03/09 12:30:47;;;;;;;;;;;;;;;24.65;73.52;102199.19;4973921;28;20372;-72
2022/03/09 12:33:20;;;;;;;;;;;;;;;26.43;66.85;102194.00;4956537;28;19922;-70
2022/03/09 12:35:46;;;;;;;;;;;;;;;25.35;68.18;102190.69;4973913;28;20295;-69
2022/03/09 12:38:11;;;;;;;;;;;;;;;26.05;66.67;102196.47;4973585;28;19922;-70
2022/03/09 12:40:36;;;;;;;;;;;;;;;26.63;56.67;102200.44;4956104;28;19973;-70
2022/03/09 12:43:01;;;;;;;;;;;;;;;26.34;64.89;102192.09;4956834;28;19919;-70